Ryuoh Maru No.2 — JM5900 — position and weather

sailwx.info

Track history (hours):
 
Tides and Currents Weather Stations Pressure Air Temp Water Temp Dewpoint Dewpoint Depression Visibility Wind Speed Wind Dir Waves Ship Positions

Ryuoh Maru No.2

Last reported at 2014-Jul-28 22:05 UTC. Time now 2014-Aug-21 00:28 UTC.
Position N 36°09' E 140°59'.
Warning: this ship's position is 23 days out of date.

Length 80 m; draft 5.4 m.

Type: Cargo ship. MMSI: 431401218.

Date/timePositionNaut miles runAvg speedWind from/ knotsBaromVisibWave heightAir tempDewpointWater temp
2014-Jul-28 22:05N 36°09' E 140°59'610.5
2014-Jul-28 21:32N 36°03' E 140°59'1010.4
2014-Jul-28 20:33N 35°53' E 140°58'1010.1
2014-Jul-28 19:31N 35°42' E 140°56'11 9.6
2014-Jul-28 18:21N 35°33' E 140°48'810.5
2014-Jul-28 17:33N 35°27' E 140°42'1110.7
2014-Jul-28 16:33N 35°18' E 140°34'2411.7
2014-Jul-28 14:32N 35°02' E 140°13'1313.1
2014-Jul-28 13:34N 34°55' E 140°00'1110.5
2014-Jul-28 12:33N 34°53' E 139°48'9 9.5
2014-Jul-28 11:34N 35°02' E 139°44'1010.4
2014-Jul-28 10:34N 35°12' E 139°46'1010.4
2014-Jul-28 09:33N 35°22' E 139°42'6 6.2
2014-Jul-28 08:33N 35°22' E 139°50'0 0.4
2014-Jul-28 07:31N 35°22' E 139°51'0 0.0
2014-Jul-28 06:31N 35°22' E 139°51'0 0.0
2014-Jul-28 05:31N 35°22' E 139°51'0 0.0
2014-Jul-28 04:31N 35°22' E 139°51'0 0.0
2014-Jul-28 03:31N 35°22' E 139°51'0 0.1
2014-Jul-28 02:33N 35°22' E 139°50'1 1.4
2014-Jul-28 01:33N 35°22' E 139°49'1 1.1
2014-Jul-28 00:31N 35°22' E 139°48'0 0.0
2014-Jul-27 23:31N 35°22' E 139°48'0 0.0
2014-Jul-27 22:31N 35°22' E 139°48'0 0.0
2014-Jul-27 21:31N 35°22' E 139°48'0 0.0
2014-Jul-27 20:31N 35°22' E 139°48'0 0.0
2014-Jul-27 19:31N 35°22' E 139°48'0 0.0
2014-Jul-27 18:31N 35°22' E 139°48'0 0.0
2014-Jul-27 17:31N 35°22' E 139°48'0 0.0
2014-Jul-27 16:31N 35°22' E 139°48'0 0.1
2014-Jul-27 15:31N 35°22' E 139°48'0 0.1
2014-Jul-27 14:31N 35°22' E 139°48'0 0.0
2014-Jul-27 13:31N 35°22' E 139°48'4 4.5
2014-Jul-27 12:33N 35°19' E 139°44'1110.6
2014-Jul-27 11:33N 35°09' E 139°47'1110.8
2014-Jul-27 10:33N 34°58' E 139°43'14 6.9
2014-Jul-27 08:31N 34°55' E 140°00'7 7.0
2014-Jul-27 07:33N 34°59' E 140°07'6 6.1
2014-Jul-27 06:33N 35°02' E 140°13'7 5.8
2014-Jul-27 05:23N 35°05' E 140°20'8 7.9
2014-Jul-27 04:21N 35°11' E 140°27'10 9.4
2014-Jul-27 03:14N 35°19' E 140°35'6 8.9
2014-Jul-27 02:32N 35°24' E 140°39'10 9.2
2014-Jul-27 01:28N 35°32' E 140°47'9 9.3
2014-Jul-27 00:27N 35°39' E 140°55'21 9.8
2014-Jul-26 22:19N 35°60' E 140°60'  
Track history (hours):
 
Tides and Currents Weather Stations Pressure Air Temp Water Temp Dewpoint Dewpoint Depression Visibility Wind Speed Wind Dir Waves Ship Positions

Ryuoh Maru No.2

Last reported at 2014-Jul-28 22:05 UTC. Time now 2014-Aug-21 00:28 UTC.
Position N 36°09' E 140°59'.
Warning: this ship's position is 23 days out of date.

Length 80 m; draft 5.4 m.

Type: Cargo ship. MMSI: 431401218.

Date/timePositionNaut miles runAvg speedWind from/ knotsBaromVisibWave heightAir tempDewpointWater temp
2014-Jul-28 22:05N 36°09' E 140°59'610.5
2014-Jul-28 21:32N 36°03' E 140°59'1010.4
2014-Jul-28 20:33N 35°53' E 140°58'1010.1
2014-Jul-28 19:31N 35°42' E 140°56'11 9.6
2014-Jul-28 18:21N 35°33' E 140°48'810.5
2014-Jul-28 17:33N 35°27' E 140°42'1110.7
2014-Jul-28 16:33N 35°18' E 140°34'2411.7
2014-Jul-28 14:32N 35°02' E 140°13'1313.1
2014-Jul-28 13:34N 34°55' E 140°00'1110.5
2014-Jul-28 12:33N 34°53' E 139°48'9 9.5
2014-Jul-28 11:34N 35°02' E 139°44'1010.4
2014-Jul-28 10:34N 35°12' E 139°46'1010.4
2014-Jul-28 09:33N 35°22' E 139°42'6 6.2
2014-Jul-28 08:33N 35°22' E 139°50'0 0.4
2014-Jul-28 07:31N 35°22' E 139°51'0 0.0
2014-Jul-28 06:31N 35°22' E 139°51'0 0.0
2014-Jul-28 05:31N 35°22' E 139°51'0 0.0
2014-Jul-28 04:31N 35°22' E 139°51'0 0.0
2014-Jul-28 03:31N 35°22' E 139°51'0 0.1
2014-Jul-28 02:33N 35°22' E 139°50'1 1.4
2014-Jul-28 01:33N 35°22' E 139°49'1 1.1
2014-Jul-28 00:31N 35°22' E 139°48'0 0.0
2014-Jul-27 23:31N 35°22' E 139°48'0 0.0
2014-Jul-27 22:31N 35°22' E 139°48'0 0.0
2014-Jul-27 21:31N 35°22' E 139°48'0 0.0
2014-Jul-27 20:31N 35°22' E 139°48'0 0.0
2014-Jul-27 19:31N 35°22' E 139°48'0 0.0
2014-Jul-27 18:31N 35°22' E 139°48'0 0.0
2014-Jul-27 17:31N 35°22' E 139°48'0 0.0
2014-Jul-27 16:31N 35°22' E 139°48'0 0.1
2014-Jul-27 15:31N 35°22' E 139°48'0 0.1
2014-Jul-27 14:31N 35°22' E 139°48'0 0.0
2014-Jul-27 13:31N 35°22' E 139°48'4 4.5
2014-Jul-27 12:33N 35°19' E 139°44'1110.6
2014-Jul-27 11:33N 35°09' E 139°47'1110.8
2014-Jul-27 10:33N 34°58' E 139°43'14 6.9
2014-Jul-27 08:31N 34°55' E 140°00'7 7.0
2014-Jul-27 07:33N 34°59' E 140°07'6 6.1
2014-Jul-27 06:33N 35°02' E 140°13'7 5.8
2014-Jul-27 05:23N 35°05' E 140°20'8 7.9
2014-Jul-27 04:21N 35°11' E 140°27'10 9.4
2014-Jul-27 03:14N 35°19' E 140°35'6 8.9
2014-Jul-27 02:32N 35°24' E 140°39'10 9.2
2014-Jul-27 01:28N 35°32' E 140°47'9 9.3
2014-Jul-27 00:27N 35°39' E 140°55'21 9.8
2014-Jul-26 22:19N 35°60' E 140°60'  

Dump ship's entire track history